General Pico, Argentina
Current Conditions -  °F | °C
As of 8:00 PM on Sunday 23 Nov 2014 (Local Time) from SAOC Reporting Station
Clear Clear  
Wind Chill: 81°   Ceiling: Unl
Heat Index: 81°   Visibility: 6mi
Dew Point: 45°   Wind: 30mph
Humidity: 28%   Direction: 360°N
Pressure: 29.56"   Gusts: 41mph
Location:  35.67°S, 63.73°W
Report Text: SAOC 232300Z 36026G36KT CAVOK 27/07 Q1001
Loading
Personal Weather Stations






























Interactive Weather Map New forecast layout! Learn more

10-Day Weather Forecast

Advertisements
Track Severe Weather on mobile